sensor_id;sensor_type;location;lat;lon;timestamp;P1;durP1;ratioP1;P2;durP2;ratioP2
7557;SDS011;3820;51.098;13.716;2023-05-10T00:00:17;1.70;;;1.48;;
7557;SDS011;3820;51.098;13.716;2023-05-10T00:02:44;2.17;;;1.70;;
7557;SDS011;3820;51.098;13.716;2023-05-10T00:05:11;2.00;;;1.58;;
7557;SDS011;3820;51.098;13.716;2023-05-10T00:07:37;2.58;;;1.60;;
7557;SDS011;3820;51.098;13.716;2023-05-10T00:10:04;2.38;;;1.88;;
7557;SDS011;3820;51.098;13.716;2023-05-10T00:12:30;1.55;;;1.38;;
7557;SDS011;3820;51.098;13.716;2023-05-10T00:14:57;2.72;;;1.70;;
7557;SDS011;3820;51.098;13.716;2023-05-10T00:17:23;3.25;;;1.67;;
7557;SDS011;3820;51.098;13.716;2023-05-10T00:19:50;2.03;;;1.60;;
7557;SDS011;3820;51.098;13.716;2023-05-10T00:22:17;2.28;;;1.60;;
7557;SDS011;3820;51.098;13.716;2023-05-10T00:24:44;2.53;;;1.80;;
7557;SDS011;3820;51.098;13.716;2023-05-10T00:27:10;1.77;;;1.65;;
7557;SDS011;3820;51.098;13.716;2023-05-10T00:29:37;1.50;;;1.40;;
7557;SDS011;3820;51.098;13.716;2023-05-10T00:32:03;2.40;;;1.70;;
7557;SDS011;3820;51.098;13.716;2023-05-10T00:34:30;2.10;;;1.73;;
7557;SDS011;3820;51.098;13.716;2023-05-10T00:36:57;1.75;;;1.30;;
7557;SDS011;3820;51.098;13.716;2023-05-10T00:39:23;1.80;;;1.58;;
7557;SDS011;3820;51.098;13.716;2023-05-10T00:41:49;2.15;;;1.50;;
7557;SDS011;3820;51.098;13.716;2023-05-10T00:44:16;2.58;;;1.70;;
7557;SDS011;3820;51.098;13.716;2023-05-10T00:46:44;1.70;;;1.50;;
7557;SDS011;3820;51.098;13.716;2023-05-10T00:49:11;1.60;;;1.50;;
7557;SDS011;3820;51.098;13.716;2023-05-10T00:51:38;2.10;;;1.58;;
7557;SDS011;3820;51.098;13.716;2023-05-10T00:54:04;1.67;;;1.42;;
7557;SDS011;3820;51.098;13.716;2023-05-10T00:56:31;1.70;;;1.50;;
7557;SDS011;3820;51.098;13.716;2023-05-10T00:58:58;1.85;;;1.50;;
7557;SDS011;3820;51.098;13.716;2023-05-10T01:01:24;2.10;;;1.50;;
7557;SDS011;3820;51.098;13.716;2023-05-10T01:03:51;1.95;;;1.48;;
7557;SDS011;3820;51.098;13.716;2023-05-10T01:06:18;1.65;;;1.50;;
7557;SDS011;3820;51.098;13.716;2023-05-10T01:08:45;5.28;;;1.40;;
7557;SDS011;3820;51.098;13.716;2023-05-10T01:11:12;2.13;;;1.80;;
7557;SDS011;3820;51.098;13.716;2023-05-10T01:13:39;2.33;;;1.58;;
7557;SDS011;3820;51.098;13.716;2023-05-10T01:16:07;2.10;;;1.70;;
7557;SDS011;3820;51.098;13.716;2023-05-10T01:18:35;2.60;;;1.58;;
7557;SDS011;3820;51.098;13.716;2023-05-10T01:23:55;2.25;;;1.60;;
7557;SDS011;3820;51.098;13.716;2023-05-10T01:32:16;1.92;;;1.60;;
7557;SDS011;3820;51.098;13.716;2023-05-10T01:35:00;1.80;;;1.52;;
7557;SDS011;3820;51.098;13.716;2023-05-10T01:37:36;2.35;;;1.60;;
7557;SDS011;3820;51.098;13.716;2023-05-10T01:43:04;3.13;;;1.70;;
7557;SDS011;3820;51.098;13.716;2023-05-10T01:45:41;1.88;;;1.48;;
7557;SDS011;3820;51.098;13.716;2023-05-10T01:48:24;2.15;;;1.63;;
7557;SDS011;3820;51.098;13.716;2023-05-10T01:50:53;1.30;;;1.20;;
7557;SDS011;3820;51.098;13.716;2023-05-10T01:53:20;2.30;;;1.63;;
7557;SDS011;3820;51.098;13.716;2023-05-10T01:55:49;1.67;;;1.20;;
7557;SDS011;3820;51.098;13.716;2023-05-10T01:58:27;1.58;;;1.42;;
7557;SDS011;3820;51.098;13.716;2023-05-10T02:03:49;2.35;;;1.52;;
7557;SDS011;3820;51.098;13.716;2023-05-10T02:06:18;2.22;;;1.58;;
7557;SDS011;3820;51.098;13.716;2023-05-10T02:08:45;1.90;;;1.38;;
7557;SDS011;3820;51.098;13.716;2023-05-10T02:11:13;1.67;;;1.40;;
7557;SDS011;3820;51.098;13.716;2023-05-10T02:13:40;2.17;;;1.58;;
7557;SDS011;3820;51.098;13.716;2023-05-10T02:16:08;1.60;;;1.35;;
7557;SDS011;3820;51.098;13.716;2023-05-10T02:18:35;2.05;;;1.40;;
7557;SDS011;3820;51.098;13.716;2023-05-10T02:21:02;1.92;;;1.63;;
7557;SDS011;3820;51.098;13.716;2023-05-10T02:23:29;1.80;;;1.50;;
7557;SDS011;3820;51.098;13.716;2023-05-10T02:25:56;1.90;;;1.52;;
7557;SDS011;3820;51.098;13.716;2023-05-10T02:28:24;2.42;;;1.75;;
7557;SDS011;3820;51.098;13.716;2023-05-10T02:30:51;1.50;;;1.40;;
7557;SDS011;3820;51.098;13.716;2023-05-10T02:33:18;1.58;;;1.20;;
7557;SDS011;3820;51.098;13.716;2023-05-10T02:35:46;1.92;;;1.35;;
7557;SDS011;3820;51.098;13.716;2023-05-10T02:38:14;1.92;;;1.50;;
7557;SDS011;3820;51.098;13.716;2023-05-10T02:40:41;1.83;;;1.50;;
7557;SDS011;3820;51.098;13.716;2023-05-10T02:43:12;1.75;;;1.05;;
7557;SDS011;3820;51.098;13.716;2023-05-10T02:45:39;1.38;;;1.27;;
7557;SDS011;3820;51.098;13.716;2023-05-10T02:48:06;4.57;;;1.75;;
7557;SDS011;3820;51.098;13.716;2023-05-10T02:50:34;1.88;;;1.60;;
7557;SDS011;3820;51.098;13.716;2023-05-10T02:53:03;2.17;;;1.58;;
7557;SDS011;3820;51.098;13.716;2023-05-10T02:55:38;2.08;;;1.52;;
7557;SDS011;3820;51.098;13.716;2023-05-10T02:58:06;1.63;;;1.40;;
7557;SDS011;3820;51.098;13.716;2023-05-10T03:00:32;1.52;;;1.27;;
7557;SDS011;3820;51.098;13.716;2023-05-10T03:02:59;2.10;;;1.52;;
7557;SDS011;3820;51.098;13.716;2023-05-10T03:05:26;2.13;;;1.63;;
7557;SDS011;3820;51.098;13.716;2023-05-10T03:07:53;1.73;;;1.40;;
7557;SDS011;3820;51.098;13.716;2023-05-10T03:10:21;2.45;;;1.50;;
7557;SDS011;3820;51.098;13.716;2023-05-10T03:13:05;1.75;;;1.50;;
7557;SDS011;3820;51.098;13.716;2023-05-10T03:15:56;1.83;;;1.50;;
7557;SDS011;3820;51.098;13.716;2023-05-10T03:18:33;2.38;;;1.55;;
7557;SDS011;3820;51.098;13.716;2023-05-10T03:21:05;4.00;;;1.83;;
7557;SDS011;3820;51.098;13.716;2023-05-10T03:26:07;2.17;;;1.60;;
7557;SDS011;3820;51.098;13.716;2023-05-10T03:28:34;1.67;;;1.27;;
7557;SDS011;3820;51.098;13.716;2023-05-10T03:31:02;1.63;;;1.40;;
7557;SDS011;3820;51.098;13.716;2023-05-10T03:33:31;1.40;;;1.30;;
7557;SDS011;3820;51.098;13.716;2023-05-10T03:35:58;1.60;;;1.50;;
7557;SDS011;3820;51.098;13.716;2023-05-10T03:38:25;2.10;;;1.55;;
7557;SDS011;3820;51.098;13.716;2023-05-10T03:40:54;2.40;;;1.77;;
7557;SDS011;3820;51.098;13.716;2023-05-10T03:43:20;2.00;;;1.38;;
7557;SDS011;3820;51.098;13.716;2023-05-10T03:45:47;2.10;;;1.40;;
7557;SDS011;3820;51.098;13.716;2023-05-10T03:48:13;1.73;;;1.40;;
7557;SDS011;3820;51.098;13.716;2023-05-10T03:50:40;1.90;;;1.40;;
7557;SDS011;3820;51.098;13.716;2023-05-10T03:53:06;1.98;;;1.40;;
7557;SDS011;3820;51.098;13.716;2023-05-10T03:55:32;1.95;;;1.58;;
7557;SDS011;3820;51.098;13.716;2023-05-10T03:58:02;2.15;;;1.38;;
7557;SDS011;3820;51.098;13.716;2023-05-10T04:00:28;2.80;;;1.38;;
7557;SDS011;3820;51.098;13.716;2023-05-10T04:03:07;1.95;;;1.70;;
7557;SDS011;3820;51.098;13.716;2023-05-10T04:05:33;2.72;;;1.58;;
7557;SDS011;3820;51.098;13.716;2023-05-10T04:08:00;1.85;;;1.50;;
7557;SDS011;3820;51.098;13.716;2023-05-10T04:10:27;2.17;;;1.40;;
7557;SDS011;3820;51.098;13.716;2023-05-10T04:12:54;1.52;;;1.38;;
7557;SDS011;3820;51.098;13.716;2023-05-10T04:15:20;2.05;;;1.50;;
7557;SDS011;3820;51.098;13.716;2023-05-10T04:17:47;1.40;;;1.30;;
7557;SDS011;3820;51.098;13.716;2023-05-10T04:20:17;1.95;;;1.40;;
7557;SDS011;3820;51.098;13.716;2023-05-10T04:22:44;2.72;;;1.55;;
7557;SDS011;3820;51.098;13.716;2023-05-10T04:25:10;1.63;;;1.48;;
7557;SDS011;3820;51.098;13.716;2023-05-10T04:27:37;1.70;;;1.45;;
7557;SDS011;3820;51.098;13.716;2023-05-10T04:30:03;1.98;;;1.40;;
7557;SDS011;3820;51.098;13.716;2023-05-10T04:32:30;2.08;;;1.58;;
7557;SDS011;3820;51.098;13.716;2023-05-10T04:34:57;1.55;;;1.42;;
7557;SDS011;3820;51.098;13.716;2023-05-10T04:37:24;2.35;;;1.35;;
7557;SDS011;3820;51.098;13.716;2023-05-10T04:39:50;1.50;;;1.20;;
7557;SDS011;3820;51.098;13.716;2023-05-10T04:42:17;1.90;;;1.38;;
7557;SDS011;3820;51.098;13.716;2023-05-10T04:44:44;1.85;;;1.40;;
7557;SDS011;3820;51.098;13.716;2023-05-10T04:47:12;2.08;;;1.52;;
7557;SDS011;3820;51.098;13.716;2023-05-10T04:49:39;2.15;;;1.50;;
7557;SDS011;3820;51.098;13.716;2023-05-10T04:52:06;1.85;;;1.30;;
7557;SDS011;3820;51.098;13.716;2023-05-10T04:54:33;2.10;;;1.23;;
7557;SDS011;3820;51.098;13.716;2023-05-10T04:57:00;2.47;;;1.58;;
7557;SDS011;3820;51.098;13.716;2023-05-10T04:59:27;2.22;;;1.42;;
7557;SDS011;3820;51.098;13.716;2023-05-10T05:01:53;1.85;;;1.48;;
7557;SDS011;3820;51.098;13.716;2023-05-10T05:04:21;2.13;;;1.40;;
7557;SDS011;3820;51.098;13.716;2023-05-10T05:06:49;1.73;;;1.30;;
7557;SDS011;3820;51.098;13.716;2023-05-10T05:09:19;3.08;;;1.42;;
7557;SDS011;3820;51.098;13.716;2023-05-10T05:11:46;2.60;;;1.50;;
7557;SDS011;3820;51.098;13.716;2023-05-10T05:14:12;2.03;;;1.35;;
7557;SDS011;3820;51.098;13.716;2023-05-10T05:16:39;1.85;;;1.23;;
7557;SDS011;3820;51.098;13.716;2023-05-10T05:19:05;1.73;;;1.55;;
7557;SDS011;3820;51.098;13.716;2023-05-10T05:21:32;1.52;;;1.17;;
7557;SDS011;3820;51.098;13.716;2023-05-10T05:23:58;1.67;;;1.38;;
7557;SDS011;3820;51.098;13.716;2023-05-10T05:26:26;2.10;;;1.50;;
7557;SDS011;3820;51.098;13.716;2023-05-10T05:28:52;1.88;;;1.30;;
7557;SDS011;3820;51.098;13.716;2023-05-10T05:31:20;1.98;;;1.27;;
7557;SDS011;3820;51.098;13.716;2023-05-10T05:33:47;1.65;;;1.52;;
7557;SDS011;3820;51.098;13.716;2023-05-10T05:36:14;1.75;;;1.38;;
7557;SDS011;3820;51.098;13.716;2023-05-10T05:38:40;1.42;;;1.30;;
7557;SDS011;3820;51.098;13.716;2023-05-10T05:41:07;2.00;;;1.30;;
7557;SDS011;3820;51.098;13.716;2023-05-10T05:43:33;1.88;;;1.30;;
7557;SDS011;3820;51.098;13.716;2023-05-10T05:46:03;2.10;;;1.60;;
7557;SDS011;3820;51.098;13.716;2023-05-10T05:48:30;2.13;;;1.58;;
7557;SDS011;3820;51.098;13.716;2023-05-10T05:50:57;1.38;;;1.20;;
7557;SDS011;3820;51.098;13.716;2023-05-10T05:53:24;1.77;;;1.52;;
7557;SDS011;3820;51.098;13.716;2023-05-10T05:55:51;1.70;;;1.25;;
7557;SDS011;3820;51.098;13.716;2023-05-10T05:58:19;1.30;;;1.20;;
7557;SDS011;3820;51.098;13.716;2023-05-10T06:00:46;1.67;;;1.52;;
7557;SDS011;3820;51.098;13.716;2023-05-10T06:03:12;3.35;;;1.85;;
7557;SDS011;3820;51.098;13.716;2023-05-10T06:05:39;1.60;;;1.10;;
7557;SDS011;3820;51.098;13.716;2023-05-10T06:08:05;1.65;;;1.55;;
7557;SDS011;3820;51.098;13.716;2023-05-10T06:10:32;2.83;;;1.40;;
7557;SDS011;3820;51.098;13.716;2023-05-10T06:12:58;2.13;;;1.70;;
7557;SDS011;3820;51.098;13.716;2023-05-10T06:15:25;4.95;;;1.60;;
7557;SDS011;3820;51.098;13.716;2023-05-10T06:17:52;1.33;;;1.20;;
7557;SDS011;3820;51.098;13.716;2023-05-10T06:20:18;3.10;;;1.48;;
7557;SDS011;3820;51.098;13.716;2023-05-10T06:22:45;3.42;;;1.65;;
7557;SDS011;3820;51.098;13.716;2023-05-10T06:25:11;1.73;;;1.40;;
7557;SDS011;3820;51.098;13.716;2023-05-10T06:27:38;1.92;;;1.60;;
7557;SDS011;3820;51.098;13.716;2023-05-10T06:30:04;1.90;;;1.30;;
7557;SDS011;3820;51.098;13.716;2023-05-10T06:32:38;2.05;;;1.70;;
7557;SDS011;3820;51.098;13.716;2023-05-10T06:35:05;1.70;;;1.45;;
7557;SDS011;3820;51.098;13.716;2023-05-10T06:37:32;1.90;;;1.40;;
7557;SDS011;3820;51.098;13.716;2023-05-10T06:39:59;1.98;;;1.50;;
7557;SDS011;3820;51.098;13.716;2023-05-10T06:42:26;2.72;;;1.85;;
7557;SDS011;3820;51.098;13.716;2023-05-10T06:44:53;1.88;;;1.52;;
7557;SDS011;3820;51.098;13.716;2023-05-10T06:47:21;2.15;;;1.42;;
7557;SDS011;3820;51.098;13.716;2023-05-10T06:49:48;1.52;;;1.40;;
7557;SDS011;3820;51.098;13.716;2023-05-10T06:52:14;1.58;;;1.38;;
7557;SDS011;3820;51.098;13.716;2023-05-10T06:54:41;2.80;;;1.55;;
7557;SDS011;3820;51.098;13.716;2023-05-10T06:57:07;3.28;;;1.50;;
7557;SDS011;3820;51.098;13.716;2023-05-10T06:59:54;1.75;;;1.42;;
7557;SDS011;3820;51.098;13.716;2023-05-10T07:02:22;1.92;;;1.10;;
7557;SDS011;3820;51.098;13.716;2023-05-10T07:04:49;4.03;;;1.50;;
7557;SDS011;3820;51.098;13.716;2023-05-10T07:07:16;2.45;;;1.48;;
7557;SDS011;3820;51.098;13.716;2023-05-10T07:09:42;1.85;;;1.60;;
7557;SDS011;3820;51.098;13.716;2023-05-10T07:12:09;1.70;;;1.52;;
7557;SDS011;3820;51.098;13.716;2023-05-10T07:14:39;1.88;;;1.60;;
7557;SDS011;3820;51.098;13.716;2023-05-10T07:17:06;1.80;;;1.60;;
7557;SDS011;3820;51.098;13.716;2023-05-10T07:19:32;2.65;;;1.70;;
7557;SDS011;3820;51.098;13.716;2023-05-10T07:21:59;1.88;;;1.42;;
7557;SDS011;3820;51.098;13.716;2023-05-10T07:24:25;1.52;;;1.33;;
7557;SDS011;3820;51.098;13.716;2023-05-10T07:26:52;2.65;;;1.40;;
7557;SDS011;3820;51.098;13.716;2023-05-10T07:29:18;2.38;;;1.70;;
7557;SDS011;3820;51.098;13.716;2023-05-10T07:31:45;2.85;;;1.45;;
7557;SDS011;3820;51.098;13.716;2023-05-10T07:34:11;1.90;;;1.50;;
7557;SDS011;3820;51.098;13.716;2023-05-10T07:36:38;2.22;;;1.60;;
7557;SDS011;3820;51.098;13.716;2023-05-10T07:39:05;1.60;;;1.50;;
7557;SDS011;3820;51.098;13.716;2023-05-10T07:41:31;1.92;;;1.40;;
7557;SDS011;3820;51.098;13.716;2023-05-10T07:44:01;2.38;;;1.80;;
7557;SDS011;3820;51.098;13.716;2023-05-10T07:46:27;2.33;;;1.65;;
7557;SDS011;3820;51.098;13.716;2023-05-10T07:48:54;2.70;;;1.80;;
7557;SDS011;3820;51.098;13.716;2023-05-10T07:51:21;2.00;;;1.55;;
7557;SDS011;3820;51.098;13.716;2023-05-10T07:53:47;2.17;;;1.67;;
7557;SDS011;3820;51.098;13.716;2023-05-10T07:56:21;2.13;;;1.50;;
7557;SDS011;3820;51.098;13.716;2023-05-10T07:58:49;2.47;;;1.60;;
7557;SDS011;3820;51.098;13.716;2023-05-10T08:01:15;4.03;;;1.85;;
7557;SDS011;3820;51.098;13.716;2023-05-10T08:03:42;1.80;;;1.60;;
7557;SDS011;3820;51.098;13.716;2023-05-10T08:06:09;2.65;;;1.83;;
7557;SDS011;3820;51.098;13.716;2023-05-10T08:08:36;1.88;;;1.63;;
7557;SDS011;3820;51.098;13.716;2023-05-10T08:11:03;2.10;;;1.70;;
7557;SDS011;3820;51.098;13.716;2023-05-10T08:13:30;2.10;;;1.60;;
7557;SDS011;3820;51.098;13.716;2023-05-10T08:15:57;2.40;;;2.08;;
7557;SDS011;3820;51.098;13.716;2023-05-10T08:18:24;3.03;;;1.90;;
7557;SDS011;3820;51.098;13.716;2023-05-10T08:20:51;2.58;;;1.65;;
7557;SDS011;3820;51.098;13.716;2023-05-10T08:23:17;2.40;;;2.00;;
7557;SDS011;3820;51.098;13.716;2023-05-10T08:25:43;3.30;;;2.10;;
7557;SDS011;3820;51.098;13.716;2023-05-10T08:28:11;1.98;;;1.60;;
7557;SDS011;3820;51.098;13.716;2023-05-10T08:30:38;2.95;;;1.67;;
7557;SDS011;3820;51.098;13.716;2023-05-10T08:33:04;2.17;;;1.42;;
7557;SDS011;3820;51.098;13.716;2023-05-10T08:35:31;2.45;;;1.60;;
7557;SDS011;3820;51.098;13.716;2023-05-10T08:37:59;2.63;;;1.50;;
7557;SDS011;3820;51.098;13.716;2023-05-10T08:40:26;2.00;;;1.75;;
7557;SDS011;3820;51.098;13.716;2023-05-10T08:42:58;2.17;;;1.55;;
7557;SDS011;3820;51.098;13.716;2023-05-10T08:45:27;2.60;;;2.00;;
7557;SDS011;3820;51.098;13.716;2023-05-10T08:48:01;2.67;;;2.03;;
7557;SDS011;3820;51.098;13.716;2023-05-10T08:50:28;2.03;;;1.67;;
7557;SDS011;3820;51.098;13.716;2023-05-10T08:52:55;3.10;;;1.92;;
7557;SDS011;3820;51.098;13.716;2023-05-10T08:55:24;3.42;;;1.98;;
7557;SDS011;3820;51.098;13.716;2023-05-10T08:57:51;2.58;;;1.85;;
7557;SDS011;3820;51.098;13.716;2023-05-10T09:00:17;2.70;;;1.80;;
7557;SDS011;3820;51.098;13.716;2023-05-10T09:02:44;1.67;;;1.38;;
7557;SDS011;3820;51.098;13.716;2023-05-10T09:05:12;2.67;;;1.77;;
7557;SDS011;3820;51.098;13.716;2023-05-10T09:07:38;4.18;;;1.80;;
7557;SDS011;3820;51.098;13.716;2023-05-10T09:10:05;2.55;;;2.10;;
7557;SDS011;3820;51.098;13.716;2023-05-10T09:12:33;3.08;;;2.10;;
7557;SDS011;3820;51.098;13.716;2023-05-10T09:14:59;2.53;;;1.95;;
7557;SDS011;3820;51.098;13.716;2023-05-10T09:17:26;2.42;;;1.75;;
7557;SDS011;3820;51.098;13.716;2023-05-10T09:19:57;3.08;;;2.20;;
7557;SDS011;3820;51.098;13.716;2023-05-10T09:22:27;2.47;;;1.80;;
7557;SDS011;3820;51.098;13.716;2023-05-10T09:25:10;2.58;;;2.05;;
7557;SDS011;3820;51.098;13.716;2023-05-10T09:27:38;2.45;;;1.80;;
7557;SDS011;3820;51.098;13.716;2023-05-10T09:30:06;1.98;;;1.70;;
7557;SDS011;3820;51.098;13.716;2023-05-10T09:35:10;2.20;;;1.70;;
7557;SDS011;3820;51.098;13.716;2023-05-10T09:37:39;2.17;;;1.77;;
7557;SDS011;3820;51.098;13.716;2023-05-10T09:40:16;2.22;;;2.00;;
7557;SDS011;3820;51.098;13.716;2023-05-10T09:42:58;2.47;;;2.22;;
7557;SDS011;3820;51.098;13.716;2023-05-10T09:45:29;2.55;;;1.98;;
7557;SDS011;3820;51.098;13.716;2023-05-10T09:47:57;3.22;;;1.90;;
7557;SDS011;3820;51.098;13.716;2023-05-10T09:50:25;2.03;;;1.83;;
7557;SDS011;3820;51.098;13.716;2023-05-10T09:53:00;3.92;;;2.30;;
7557;SDS011;3820;51.098;13.716;2023-05-10T09:55:41;2.53;;;1.85;;
7557;SDS011;3820;51.098;13.716;2023-05-10T09:58:12;2.45;;;1.83;;
7557;SDS011;3820;51.098;13.716;2023-05-10T10:00:41;2.15;;;1.83;;
7557;SDS011;3820;51.098;13.716;2023-05-10T10:03:12;3.65;;;1.80;;
7557;SDS011;3820;51.098;13.716;2023-05-10T10:05:41;2.95;;;1.95;;
7557;SDS011;3820;51.098;13.716;2023-05-10T10:08:11;2.53;;;1.95;;
7557;SDS011;3820;51.098;13.716;2023-05-10T10:10:39;3.00;;;2.20;;
7557;SDS011;3820;51.098;13.716;2023-05-10T10:13:07;3.38;;;1.98;;
7557;SDS011;3820;51.098;13.716;2023-05-10T10:15:34;2.10;;;1.80;;
7557;SDS011;3820;51.098;13.716;2023-05-10T10:18:01;2.72;;;2.10;;
7557;SDS011;3820;51.098;13.716;2023-05-10T10:20:30;3.03;;;1.88;;
7557;SDS011;3820;51.098;13.716;2023-05-10T10:22:56;3.20;;;2.30;;
7557;SDS011;3820;51.098;13.716;2023-05-10T10:25:23;2.75;;;1.98;;
7557;SDS011;3820;51.098;13.716;2023-05-10T10:36:16;3.00;;;2.10;;
7557;SDS011;3820;51.098;13.716;2023-05-10T10:47:01;2.90;;;2.38;;
7557;SDS011;3820;51.098;13.716;2023-05-10T10:49:51;2.63;;;2.00;;
7557;SDS011;3820;51.098;13.716;2023-05-10T10:52:22;2.55;;;2.08;;
7557;SDS011;3820;51.098;13.716;2023-05-10T10:55:00;3.25;;;2.38;;
7557;SDS011;3820;51.098;13.716;2023-05-10T10:57:28;4.35;;;2.03;;
7557;SDS011;3820;51.098;13.716;2023-05-10T11:00:17;4.53;;;2.28;;
7557;SDS011;3820;51.098;13.716;2023-05-10T11:03:04;2.30;;;2.00;;
7557;SDS011;3820;51.098;13.716;2023-05-10T11:05:41;4.63;;;2.58;;
7557;SDS011;3820;51.098;13.716;2023-05-10T11:08:20;3.75;;;2.05;;
7557;SDS011;3820;51.098;13.716;2023-05-10T11:10:53;2.60;;;2.08;;
7557;SDS011;3820;51.098;13.716;2023-05-10T11:13:34;3.50;;;2.60;;
7557;SDS011;3820;51.098;13.716;2023-05-10T11:18:37;3.05;;;1.95;;
7557;SDS011;3820;51.098;13.716;2023-05-10T11:21:04;2.25;;;1.80;;
7557;SDS011;3820;51.098;13.716;2023-05-10T11:23:32;2.20;;;2.00;;
7557;SDS011;3820;51.098;13.716;2023-05-10T11:26:13;3.70;;;2.30;;
7557;SDS011;3820;51.098;13.716;2023-05-10T11:28:43;2.78;;;1.90;;
7557;SDS011;3820;51.098;13.716;2023-05-10T11:31:14;2.53;;;2.20;;
7557;SDS011;3820;51.098;13.716;2023-05-10T11:33:45;3.30;;;2.28;;
7557;SDS011;3820;51.098;13.716;2023-05-10T11:36:16;3.85;;;2.05;;
7557;SDS011;3820;51.098;13.716;2023-05-10T11:38:44;3.05;;;2.35;;
7557;SDS011;3820;51.098;13.716;2023-05-10T11:41:11;2.63;;;2.22;;
7557;SDS011;3820;51.098;13.716;2023-05-10T11:43:38;4.55;;;2.20;;
7557;SDS011;3820;51.098;13.716;2023-05-10T11:46:06;3.05;;;2.58;;
7557;SDS011;3820;51.098;13.716;2023-05-10T11:48:33;3.38;;;2.25;;
7557;SDS011;3820;51.098;13.716;2023-05-10T11:51:00;2.20;;;2.00;;
7557;SDS011;3820;51.098;13.716;2023-05-10T11:53:31;3.08;;;2.20;;
7557;SDS011;3820;51.098;13.716;2023-05-10T11:56:08;2.70;;;2.40;;
7557;SDS011;3820;51.098;13.716;2023-05-10T11:58:36;3.75;;;2.50;;
7557;SDS011;3820;51.098;13.716;2023-05-10T12:01:04;3.42;;;2.00;;
7557;SDS011;3820;51.098;13.716;2023-05-10T12:03:31;3.30;;;2.45;;
7557;SDS011;3820;51.098;13.716;2023-05-10T12:05:58;3.53;;;2.35;;
7557;SDS011;3820;51.098;13.716;2023-05-10T12:08:27;2.28;;;1.90;;
7557;SDS011;3820;51.098;13.716;2023-05-10T12:11:04;2.35;;;2.15;;
7557;SDS011;3820;51.098;13.716;2023-05-10T12:13:37;4.40;;;2.25;;
7557;SDS011;3820;51.098;13.716;2023-05-10T12:16:16;3.10;;;2.42;;
7557;SDS011;3820;51.098;13.716;2023-05-10T12:18:43;4.30;;;2.60;;
7557;SDS011;3820;51.098;13.716;2023-05-10T12:21:11;2.60;;;2.00;;
7557;SDS011;3820;51.098;13.716;2023-05-10T12:23:38;2.67;;;2.17;;
7557;SDS011;3820;51.098;13.716;2023-05-10T12:26:05;2.25;;;1.65;;
7557;SDS011;3820;51.098;13.716;2023-05-10T12:28:33;2.45;;;1.70;;
7557;SDS011;3820;51.098;13.716;2023-05-10T12:31:00;3.20;;;2.08;;
7557;SDS011;3820;51.098;13.716;2023-05-10T12:33:34;3.15;;;2.17;;
7557;SDS011;3820;51.098;13.716;2023-05-10T12:36:09;2.78;;;2.30;;
7557;SDS011;3820;51.098;13.716;2023-05-10T12:38:37;2.58;;;2.20;;
7557;SDS011;3820;51.098;13.716;2023-05-10T12:41:06;2.50;;;2.10;;
7557;SDS011;3820;51.098;13.716;2023-05-10T12:43:34;3.45;;;2.50;;
7557;SDS011;3820;51.098;13.716;2023-05-10T12:46:07;4.90;;;2.20;;
7557;SDS011;3820;51.098;13.716;2023-05-10T12:48:38;2.53;;;2.00;;
7557;SDS011;3820;51.098;13.716;2023-05-10T12:51:06;2.92;;;2.38;;
7557;SDS011;3820;51.098;13.716;2023-05-10T12:53:35;4.28;;;2.00;;
7557;SDS011;3820;51.098;13.716;2023-05-10T12:56:02;2.63;;;1.98;;
7557;SDS011;3820;51.098;13.716;2023-05-10T12:58:30;3.60;;;2.50;;
7557;SDS011;3820;51.098;13.716;2023-05-10T13:01:01;4.32;;;2.22;;
7557;SDS011;3820;51.098;13.716;2023-05-10T13:03:29;3.45;;;2.35;;
7557;SDS011;3820;51.098;13.716;2023-05-10T13:05:55;3.05;;;2.13;;
7557;SDS011;3820;51.098;13.716;2023-05-10T13:08:22;3.45;;;2.28;;
7557;SDS011;3820;51.098;13.716;2023-05-10T13:10:48;2.60;;;2.10;;
7557;SDS011;3820;51.098;13.716;2023-05-10T13:13:15;2.70;;;2.00;;
7557;SDS011;3820;51.098;13.716;2023-05-10T13:15:41;2.70;;;2.05;;
7557;SDS011;3820;51.098;13.716;2023-05-10T13:18:08;2.60;;;2.10;;
7557;SDS011;3820;51.098;13.716;2023-05-10T13:20:34;2.97;;;2.30;;
7557;SDS011;3820;51.098;13.716;2023-05-10T13:23:01;2.90;;;2.00;;
7557;SDS011;3820;51.098;13.716;2023-05-10T13:25:28;2.95;;;2.17;;
7557;SDS011;3820;51.098;13.716;2023-05-10T13:27:55;3.83;;;2.33;;
7557;SDS011;3820;51.098;13.716;2023-05-10T13:30:22;2.72;;;2.05;;
7557;SDS011;3820;51.098;13.716;2023-05-10T13:32:50;2.45;;;2.00;;
7557;SDS011;3820;51.098;13.716;2023-05-10T13:35:16;2.53;;;2.10;;
7557;SDS011;3820;51.098;13.716;2023-05-10T13:37:43;3.53;;;2.63;;
7557;SDS011;3820;51.098;13.716;2023-05-10T13:40:10;4.20;;;2.92;;
7557;SDS011;3820;51.098;13.716;2023-05-10T13:42:37;5.30;;;2.95;;
7557;SDS011;3820;51.098;13.716;2023-05-10T13:45:04;2.72;;;2.25;;
7557;SDS011;3820;51.098;13.716;2023-05-10T13:47:31;2.95;;;2.28;;
7557;SDS011;3820;51.098;13.716;2023-05-10T13:49:57;3.40;;;2.20;;
7557;SDS011;3820;51.098;13.716;2023-05-10T13:52:24;3.00;;;2.33;;
7557;SDS011;3820;51.098;13.716;2023-05-10T13:54:52;3.75;;;2.47;;
7557;SDS011;3820;51.098;13.716;2023-05-10T13:57:21;2.33;;;2.10;;
7557;SDS011;3820;51.098;13.716;2023-05-10T13:59:48;3.38;;;2.08;;
7557;SDS011;3820;51.098;13.716;2023-05-10T14:02:15;2.92;;;1.92;;
7557;SDS011;3820;51.098;13.716;2023-05-10T14:04:41;2.45;;;2.03;;
7557;SDS011;3820;51.098;13.716;2023-05-10T14:07:08;2.58;;;2.15;;
7557;SDS011;3820;51.098;13.716;2023-05-10T14:09:34;2.35;;;1.90;;
7557;SDS011;3820;51.098;13.716;2023-05-10T14:12:01;3.33;;;2.20;;
7557;SDS011;3820;51.098;13.716;2023-05-10T14:14:28;2.38;;;1.60;;
7557;SDS011;3820;51.098;13.716;2023-05-10T14:16:55;2.55;;;2.03;;
7557;SDS011;3820;51.098;13.716;2023-05-10T14:19:22;2.72;;;2.10;;
7557;SDS011;3820;51.098;13.716;2023-05-10T14:21:48;3.22;;;1.95;;
7557;SDS011;3820;51.098;13.716;2023-05-10T14:24:15;2.70;;;2.00;;
7557;SDS011;3820;51.098;13.716;2023-05-10T14:26:41;3.67;;;2.20;;
7557;SDS011;3820;51.098;13.716;2023-05-10T14:29:08;2.70;;;1.83;;
7557;SDS011;3820;51.098;13.716;2023-05-10T14:31:37;3.17;;;2.10;;
7557;SDS011;3820;51.098;13.716;2023-05-10T14:34:04;2.22;;;1.90;;
7557;SDS011;3820;51.098;13.716;2023-05-10T14:36:32;2.88;;;2.10;;
7557;SDS011;3820;51.098;13.716;2023-05-10T14:38:58;3.28;;;2.08;;
7557;SDS011;3820;51.098;13.716;2023-05-10T14:41:25;2.83;;;2.38;;
7557;SDS011;3820;51.098;13.716;2023-05-10T14:43:53;2.63;;;2.00;;
7557;SDS011;3820;51.098;13.716;2023-05-10T14:46:20;3.00;;;2.08;;
7557;SDS011;3820;51.098;13.716;2023-05-10T14:48:47;2.83;;;2.25;;
7557;SDS011;3820;51.098;13.716;2023-05-10T14:51:13;2.58;;;2.03;;
7557;SDS011;3820;51.098;13.716;2023-05-10T14:53:40;3.05;;;2.08;;
7557;SDS011;3820;51.098;13.716;2023-05-10T14:56:06;2.90;;;2.10;;
7557;SDS011;3820;51.098;13.716;2023-05-10T14:58:33;3.70;;;2.80;;
7557;SDS011;3820;51.098;13.716;2023-05-10T15:00:59;2.40;;;2.08;;
7557;SDS011;3820;51.098;13.716;2023-05-10T15:03:27;3.65;;;2.38;;
7557;SDS011;3820;51.098;13.716;2023-05-10T15:05:54;2.45;;;2.15;;
7557;SDS011;3820;51.098;13.716;2023-05-10T15:08:22;2.70;;;2.30;;
7557;SDS011;3820;51.098;13.716;2023-05-10T15:10:50;2.92;;;2.00;;
7557;SDS011;3820;51.098;13.716;2023-05-10T15:13:17;2.50;;;1.98;;
7557;SDS011;3820;51.098;13.716;2023-05-10T15:15:43;2.45;;;2.00;;
7557;SDS011;3820;51.098;13.716;2023-05-10T15:18:10;2.97;;;2.15;;
7557;SDS011;3820;51.098;13.716;2023-05-10T15:20:38;2.65;;;2.00;;
7557;SDS011;3820;51.098;13.716;2023-05-10T15:23:04;2.75;;;2.00;;
7557;SDS011;3820;51.098;13.716;2023-05-10T15:25:31;2.20;;;1.75;;
7557;SDS011;3820;51.098;13.716;2023-05-10T15:28:01;2.70;;;2.03;;
7557;SDS011;3820;51.098;13.716;2023-05-10T15:30:28;2.92;;;2.00;;
7557;SDS011;3820;51.098;13.716;2023-05-10T15:32:55;2.28;;;1.80;;
7557;SDS011;3820;51.098;13.716;2023-05-10T15:35:22;2.67;;;1.80;;
7557;SDS011;3820;51.098;13.716;2023-05-10T15:37:48;2.65;;;2.20;;
7557;SDS011;3820;51.098;13.716;2023-05-10T15:40:15;2.47;;;2.00;;
7557;SDS011;3820;51.098;13.716;2023-05-10T15:42:42;3.03;;;2.42;;
7557;SDS011;3820;51.098;13.716;2023-05-10T15:45:08;3.08;;;2.00;;